Ardmore, Tennessee
Current Conditions -  °F | °C
As of 6:55 PM on Thursday 30 Oct 2014 (Local Time) from KFYM Reporting Station
Clear Clear  
Wind Chill: 42°   Ceiling: Unl
Heat Index: 48°   Visibility: 10mi
Dew Point: 39°   Wind: 17mph
Humidity: 71%   Direction: 10°N
Pressure: 30.04"   Gusts: 334mph
Location:  34.99°N, 86.85°W
Report Text: KFYM 302355Z AUTO 01015G290KT 10SM SQ CLR 09/04 A3004 RMK
Loading
Personal Weather Stations






























Interactive Weather Map
Tropical Storm Tracking
New forecast layout! Learn more

10-Day Weather Forecast

Advertisements
Track Severe Weather on mobile